Time;durP1;ratioP1;P1;durP2;ratioP2;P2;SDS_P1;SDS_P2;PMS_P1;PMS_P2;Temp;Humidity;BMP_temperature;BMP_pressure;BME280_temperature;BME280_humidity;BME280_pressure;Samples;Min_cycle;Max_cycle;Signal;HPM_P1;HPM_P2
2023/03/24 00:01:30;;;;;;;;;5.00;3.00;;;;;22.63;39.02;99564.53;5102984;27;45346;-74
2023/03/24 00:03:56;;;;;;;;;5.50;2.00;;;;;22.65;39.37;99570.53;5088445;27;45631;-74
2023/03/24 00:06:21;;;;;;;;;3.25;3.00;;;;;22.62;39.10;99559.31;5099856;27;45412;-74
2023/03/24 00:08:47;;;;;;;;;3.25;2.25;;;;;22.63;39.26;99582.31;5111467;27;61707;-74
2023/03/24 00:11:13;;;;;;;;;4.75;2.25;;;;;22.63;39.45;99567.19;5098926;27;45361;-74
2023/03/24 00:13:39;;;;;;;;;3.75;2.00;;;;;22.65;39.12;99578.53;5077413;27;45561;-74
2023/03/24 00:16:07;;;;;;;;;3.00;3.00;;;;;22.64;39.11;99562.69;5091117;27;47097;-74
2023/03/24 00:18:32;;;;;;;;;5.50;3.25;;;;;22.64;39.26;99574.19;5093468;27;45828;-74
2023/03/24 00:20:59;;;;;;;;;5.50;4.00;;;;;22.63;39.36;99579.66;5087918;27;45566;-74
2023/03/24 00:23:26;;;;;;;;;5.25;2.00;;;;;22.61;39.38;99578.97;5074738;27;45328;-74
2023/03/24 00:26:07;;;;;;;;;4.75;2.75;;;;;22.64;39.60;99563.50;5094455;27;45641;-74
2023/03/24 00:28:35;;;;;;;;;2.00;2.00;;;;;22.62;39.59;99600.16;5080149;27;45642;-74
2023/03/24 00:31:02;;;;;;;;;2.25;2.25;;;;;22.61;39.21;99586.97;5082081;27;45338;-74
2023/03/24 00:33:33;;;;;;;;;3.25;2.00;;;;;22.61;39.42;99584.31;5078181;27;45395;-75
2023/03/24 00:35:59;;;;;;;;;3.50;2.25;;;;;22.58;39.68;99577.44;5084872;27;46855;-75
2023/03/24 00:38:25;;;;;;;;;0.00;0.00;;;;;22.55;39.58;99583.91;5093784;27;45280;-75
2023/03/24 00:40:51;;;;;;;;;2.75;2.00;;;;;22.58;39.26;99589.94;5088055;27;45732;-75
2023/03/24 00:43:17;;;;;;;;;2.25;2.00;;;;;22.58;39.23;99595.28;5068151;27;45561;-75
2023/03/24 00:45:44;;;;;;;;;0.75;0.75;;;;;22.58;39.44;99611.28;5072975;27;48288;-74
2023/03/24 00:48:13;;;;;;;;;1.75;1.50;;;;;22.60;39.59;99625.31;5085456;27;45282;-74
2023/03/24 00:50:38;;;;;;;;;3.00;3.00;;;;;22.56;39.46;99616.75;5091104;27;45610;-74
2023/03/24 00:53:04;;;;;;;;;2.25;2.00;;;;;22.60;39.36;99635.97;5090025;27;45281;-74
2023/03/24 00:55:30;;;;;;;;;2.75;1.25;;;;;22.60;39.81;99636.81;5099231;27;45457;-74
2023/03/24 00:57:56;;;;;;;;;2.25;2.25;;;;;22.58;39.83;99643.28;5101622;27;45454;-74
2023/03/24 01:00:24;;;;;;;;;3.50;2.25;;;;;22.55;39.48;99628.41;5115203;27;45443;-75
2023/03/24 01:02:54;;;;;;;;;2.00;2.00;;;;;22.56;39.13;99632.75;5083728;27;45968;-74
2023/03/24 01:05:26;;;;;;;;;2.50;1.00;;;;;22.59;39.75;99629.78;5084294;27;47221;-74
2023/03/24 01:07:55;;;;;;;;;4.00;2.00;;;;;22.59;39.27;99621.78;5086837;27;45649;-74
2023/03/24 01:10:25;;;;;;;;;3.50;2.25;;;;;22.54;39.94;99614.25;5092197;27;45336;-74
2023/03/24 01:12:52;;;;;;;;;1.25;1.25;;;;;22.56;39.29;99620.25;5074697;27;45304;-74
2023/03/24 01:15:19;;;;;;;;;1.00;1.00;;;;;22.58;39.86;99622.78;5115267;27;45283;-74
2023/03/24 01:17:47;;;;;;;;;1.50;0.50;;;;;22.54;39.77;99611.56;5070193;27;45882;-74
2023/03/24 01:20:13;;;;;;;;;1.25;1.25;;;;;22.53;39.29;99614.38;5091726;27;45307;-74
2023/03/24 01:22:43;;;;;;;;;2.00;2.00;;;;;22.56;39.73;99638.09;5083328;27;45561;-74
2023/03/24 01:25:19;;;;;;;;;2.00;1.50;;;;;22.54;39.76;99632.91;5081130;27;46334;-74
2023/03/24 01:27:45;;;;;;;;;2.00;2.00;;;;;22.55;39.37;99612.41;5093640;27;45529;-74
2023/03/24 01:30:23;;;;;;;;;6.00;2.00;;;;;22.55;39.86;99623.91;5089734;27;45489;-74
2023/03/24 01:32:49;;;;;;;;;2.50;2.00;;;;;22.52;39.57;99628.69;5101194;27;45494;-73
2023/03/24 01:35:14;;;;;;;;;2.00;2.00;;;;;22.53;39.69;99627.72;5099557;27;45465;-73
2023/03/24 01:37:39;;;;;;;;;2.25;2.25;;;;;22.54;39.90;99624.91;5099272;27;45186;-73
2023/03/24 01:40:08;;;;;;;;;2.25;2.00;;;;;22.54;39.86;99626.72;5097891;27;51686;-73
2023/03/24 01:42:34;;;;;;;;;2.25;2.25;;;;;22.50;39.40;99620.00;5101680;27;45334;-73
2023/03/24 01:45:20;;;;;;;;;2.00;1.00;;;;;22.52;39.76;99628.69;5104404;27;46122;-74
2023/03/24 01:47:46;;;;;;;;;1.75;1.75;;;;;22.53;39.77;99627.72;5112488;27;45338;-74
2023/03/24 01:50:11;;;;;;;;;1.75;1.00;;;;;22.51;39.68;99627.84;5092900;27;45331;-73
2023/03/24 01:52:36;;;;;;;;;3.00;1.25;;;;;22.52;39.18;99645.53;5103228;27;62980;-74
2023/03/24 01:55:06;;;;;;;;;1.00;1.00;;;;;22.52;39.81;99644.69;5085386;27;45354;-74
2023/03/24 01:57:36;;;;;;;;;2.00;2.00;;;;;22.50;39.73;99652.00;5104327;27;45279;-74
2023/03/24 02:00:08;;;;;;;;;2.00;0.50;;;;;22.52;39.54;99644.69;5091318;27;45378;-74
2023/03/24 02:02:34;;;;;;;;;2.00;1.00;;;;;22.51;39.65;99640.34;5089395;27;45516;-74
2023/03/24 02:05:04;;;;;;;;;1.75;1.50;;;;;22.51;39.22;99635.84;5111134;27;45373;-74
2023/03/24 02:07:35;;;;;;;;;1.00;1.00;;;;;22.52;39.47;99610.03;5099623;27;45278;-74
2023/03/24 02:10:05;;;;;;;;;3.75;1.25;;;;;22.49;39.36;99605.00;5092565;27;45481;-74
2023/03/24 02:12:31;;;;;;;;;2.00;2.00;;;;;22.45;39.29;99617.78;5098379;27;45607;-73
2023/03/24 02:14:56;;;;;;;;;1.00;1.00;;;;;22.50;39.47;99623.50;5099132;27;45533;-73
2023/03/24 02:17:39;;;;;;;;;1.00;0.00;;;;;22.48;39.59;99606.81;5098898;27;45311;-74
2023/03/24 02:20:09;;;;;;;;;2.00;2.00;;;;;22.50;39.15;99606.66;5082998;27;45404;-73
2023/03/24 02:22:46;;;;;;;;;1.00;1.00;;;;;22.49;39.75;99619.16;5094016;27;45509;-74
2023/03/24 02:25:50;;;;;;;;;1.50;1.50;;;;;22.44;39.23;99623.25;5067468;27;46397;-73
2023/03/24 02:28:27;;;;;;;;;3.00;1.25;;;;;22.47;39.33;99636.28;5084075;27;45792;-73
2023/03/24 02:31:23;;;;;;;;;3.00;2.00;;;;;22.43;39.57;99622.41;5101293;27;45347;-74
2023/03/24 02:34:07;;;;;;;;;3.00;1.00;;;;;22.46;39.65;99656.78;5088932;27;45673;-73
2023/03/24 02:37:09;;;;;;;;;1.50;1.50;;;;;22.43;39.23;99649.06;5103795;27;46194;-74
2023/03/24 02:39:58;;;;;;;;;1.00;1.00;;;;;22.46;39.72;99643.44;5093987;27;45808;-74
2023/03/24 02:42:47;;;;;;;;;2.00;2.00;;;;;22.45;39.35;99655.09;5093183;27;45316;-74
2023/03/24 02:45:18;;;;;;;;;2.00;2.00;;;;;22.45;39.66;99670.25;5095291;27;45532;-74
2023/03/24 02:48:05;;;;;;;;;1.00;1.00;;;;;22.45;39.66;99654.25;5111544;27;47777;-74
2023/03/24 02:51:10;;;;;;;;;2.00;2.00;;;;;22.44;39.51;99658.75;5114889;27;45287;-74
2023/03/24 02:53:54;;;;;;;;;1.25;1.00;;;;;22.44;39.77;99656.09;5094832;27;45404;-74
2023/03/24 02:56:28;;;;;;;;;1.00;1.00;;;;;22.42;39.79;99663.38;5092184;27;45497;-74
2023/03/24 02:59:02;;;;;;;;;2.75;2.00;;;;;22.41;39.89;99648.38;5083103;27;47669;-74
2023/03/24 03:01:40;;;;;;;;;1.00;1.00;;;;;22.39;39.34;99655.66;5100333;27;45639;-74
2023/03/24 03:04:11;;;;;;;;;2.50;1.00;;;;;22.42;39.23;99654.56;5088853;27;45426;-74
2023/03/24 03:06:41;;;;;;;;;3.25;3.25;;;;;22.40;39.53;99643.19;5120271;27;45308;-74
2023/03/24 03:09:10;;;;;;;;;2.75;1.00;;;;;22.40;39.78;99645.84;5084449;27;48185;-74
2023/03/24 03:11:38;;;;;;;;;2.25;1.00;;;;;22.40;39.33;99669.84;5101655;27;45310;-74
2023/03/24 03:14:15;;;;;;;;;1.00;1.00;;;;;22.33;39.40;99675.75;5089561;27;45258;-74
2023/03/24 03:16:46;;;;;;;;;2.50;1.00;;;;;22.41;39.83;99684.84;5101601;27;45319;-74
2023/03/24 03:19:21;;;;;;;;;0.25;0.25;;;;;22.40;39.83;99683.16;5073987;27;46917;-74
2023/03/24 03:21:48;;;;;;;;;2.00;0.00;;;;;22.41;39.11;99698.19;5115813;27;45236;-74
2023/03/24 03:24:25;;;;;;;;;3.75;1.00;;;;;22.33;39.75;99678.41;5092747;27;45333;-75
2023/03/24 03:27:01;;;;;;;;;3.75;2.00;;;;;22.32;39.45;99686.56;5106557;27;45146;-75
2023/03/24 03:29:32;;;;;;;;;2.00;1.75;;;;;22.37;39.58;99700.28;5098058;27;46761;-75
2023/03/24 03:32:06;;;;;;;;;2.00;2.00;;;;;22.36;39.19;99696.78;5098993;27;45465;-76
2023/03/24 03:34:34;;;;;;;;;2.00;1.00;;;;;22.36;39.16;99693.28;5101938;27;45489;-76
2023/03/24 03:37:09;;;;;;;;;1.25;1.25;;;;;22.26;39.37;99693.28;5109200;27;45266;-76
2023/03/24 03:39:39;;;;;;;;;1.00;1.00;;;;;22.30;39.73;99704.53;5084049;27;48102;-75
2023/03/24 03:42:05;;;;;;;;;0.75;0.75;;;;;22.34;39.12;99709.41;5101206;27;45718;-75
2023/03/24 03:44:31;;;;;;;;;2.00;1.00;;;;;22.30;39.45;99713.34;5085937;27;45468;-75
2023/03/24 03:46:56;;;;;;;;;0.50;0.50;;;;;22.34;39.00;99714.72;5084882;27;64197;-75
2023/03/24 03:49:22;;;;;;;;;0.00;0.00;;;;;22.33;39.27;99712.25;5079377;27;70178;-75
2023/03/24 03:51:49;;;;;;;;;3.00;2.00;;;;;22.32;39.69;99708.72;5083739;27;53214;-75
2023/03/24 03:54:15;;;;;;;;;1.00;1.00;;;;;22.26;39.29;99692.44;5078401;27;45278;-75
2023/03/24 03:56:41;;;;;;;;;4.00;1.00;;;;;22.31;39.14;99706.19;5106021;27;45204;-75
2023/03/24 03:59:06;;;;;;;;;3.00;1.00;;;;;22.32;39.31;99702.53;5100486;27;45452;-75
2023/03/24 04:01:35;;;;;;;;;0.75;0.75;;;;;22.28;39.35;99696.66;5093857;27;45587;-75
2023/03/24 04:04:36;;;;;;;;;0.75;0.75;;;;;22.32;39.37;99718.53;5088245;27;45391;-74
2023/03/24 04:07:17;;;;;;;;;2.00;0.00;;;;;22.31;39.13;99725.69;4996608;28;45921;-74
2023/03/24 04:10:08;;;;;;;;;1.00;1.00;;;;;22.31;39.54;99728.38;5086480;27;46311;-74
2023/03/24 04:12:42;;;;;;;;;1.25;0.75;;;;;22.30;39.29;99726.66;5116183;27;46031;-75
2023/03/24 04:15:16;;;;;;;;;0.00;0.00;;;;;22.30;39.43;99718.69;5118427;27;45496;-74
2023/03/24 04:18:07;;;;;;;;;1.00;1.00;;;;;22.28;39.01;99714.47;5101825;27;45631;-74
2023/03/24 04:20:48;;;;;;;;;2.75;1.00;;;;;22.28;39.07;99717.16;5088930;27;46326;-75
2023/03/24 04:23:26;;;;;;;;;1.00;1.00;;;;;22.27;39.00;99729.59;5098061;27;45313;-75
2023/03/24 04:26:00;;;;;;;;;0.00;0.00;;;;;22.28;39.17;99738.47;5099231;27;45319;-75
2023/03/24 04:28:41;;;;;;;;;1.00;1.00;;;;;22.24;38.97;99737.88;5119223;27;45306;-75
2023/03/24 04:31:24;;;;;;;;;1.00;1.00;;;;;22.25;38.95;99738.72;5089781;27;46512;-75
2023/03/24 04:33:57;;;;;;;;;1.75;1.00;;;;;22.24;38.93;99742.34;5104108;27;45485;-75
2023/03/24 04:36:41;;;;;;;;;1.50;1.00;;;;;22.25;38.95;99752.88;5097641;27;45532;-75
2023/03/24 04:39:09;;;;;;;;;1.25;1.00;;;;;22.21;38.88;99745.31;5112959;27;45288;-76
2023/03/24 04:41:36;;;;;;;;;1.00;1.00;;;;;22.22;38.99;99757.66;5090119;27;45346;-75
2023/03/24 04:44:02;;;;;;;;;0.00;0.00;;;;;22.23;39.20;99762.84;5103439;27;45640;-76
2023/03/24 04:46:27;;;;;;;;;0.00;0.00;;;;;22.19;39.13;99761.44;5078266;27;66879;-76
2023/03/24 04:48:53;;;;;;;;;1.25;1.00;;;;;22.18;39.01;99773.91;5082349;27;60239;-76
2023/03/24 04:51:19;;;;;;;;;1.00;0.25;;;;;22.22;38.83;99778.97;5097103;27;74273;-75
2023/03/24 04:53:45;;;;;;;;;1.00;1.00;;;;;22.22;39.26;99779.78;5096192;27;45489;-75
2023/03/24 04:56:24;;;;;;;;;1.25;0.00;;;;;22.23;39.10;99788.66;5095694;27;45368;-75
2023/03/24 04:58:49;;;;;;;;;0.00;0.00;;;;;22.19;38.84;99780.09;5098115;27;45460;-75
2023/03/24 05:01:15;;;;;;;;;0.50;0.50;;;;;22.22;38.57;99787.78;5108693;27;65503;-75
2023/03/24 05:03:41;;;;;;;;;1.25;1.00;;;;;22.20;38.80;99797.75;5101633;27;45776;-76
2023/03/24 05:06:07;;;;;;;;;0.00;0.00;;;;;22.21;39.04;99796.78;5111544;27;65377;-75
2023/03/24 05:08:32;;;;;;;;;1.50;0.25;;;;;22.17;38.66;99792.72;5100091;27;45283;-75
2023/03/24 05:10:57;;;;;;;;;0.25;0.25;;;;;22.15;38.60;99795.53;5111925;27;45328;-75
2023/03/24 05:13:23;;;;;;;;;2.75;1.00;;;;;22.16;38.79;99788.38;5091534;27;71930;-76
2023/03/24 05:15:51;;;;;;;;;0.00;0.00;;;;;22.19;39.11;99796.09;5093413;27;62759;-76
2023/03/24 05:18:16;;;;;;;;;0.25;0.25;;;;;22.17;38.71;99790.91;5105855;27;45356;-75
2023/03/24 05:20:41;;;;;;;;;1.00;1.00;;;;;22.18;38.59;99802.38;5095218;27;73506;-75
2023/03/24 05:23:07;;;;;;;;;1.50;0.75;;;;;22.18;38.70;99807.72;5115477;27;45475;-75
2023/03/24 05:25:32;;;;;;;;;0.00;0.00;;;;;22.17;39.24;99808.72;5106483;27;58926;-75
2023/03/24 05:27:58;;;;;;;;;0.75;0.75;;;;;22.16;38.63;99817.69;5093089;27;54003;-75
2023/03/24 05:30:23;;;;;;;;;2.25;1.00;;;;;22.14;38.75;99815.16;5089341;27;45990;-75
2023/03/24 05:32:48;;;;;;;;;1.50;0.00;;;;;22.12;38.68;99809.13;5088218;27;45578;-75
2023/03/24 05:35:14;;;;;;;;;3.00;0.75;;;;;22.11;38.88;99809.25;5076098;27;64546;-75
2023/03/24 05:37:39;;;;;;;;;1.00;0.00;;;;;22.15;38.61;99818.66;5095834;27;45287;-75
2023/03/24 05:40:05;;;;;;;;;0.50;0.50;;;;;22.12;38.63;99819.78;5069040;27;72192;-75
2023/03/24 05:42:31;;;;;;;;;1.00;1.00;;;;;22.14;38.71;99830.31;5095424;27;45440;-75
2023/03/24 05:44:56;;;;;;;;;0.00;0.00;;;;;22.11;38.82;99825.25;5069750;27;64709;-75
2023/03/24 05:47:22;;;;;;;;;1.00;1.00;;;;;22.10;38.49;99827.06;5082549;27;67487;-76
2023/03/24 05:49:47;;;;;;;;;1.00;0.25;;;;;22.10;38.81;99836.91;5109452;27;46061;-75
2023/03/24 05:52:15;;;;;;;;;0.75;0.50;;;;;22.12;38.72;99834.94;5116361;27;45318;-75
2023/03/24 05:54:40;;;;;;;;;0.00;0.00;;;;;22.12;38.32;99835.78;5081622;27;45727;-75
2023/03/24 05:57:09;;;;;;;;;0.50;0.00;;;;;22.12;38.71;99842.94;5094550;27;45377;-75
2023/03/24 05:59:34;;;;;;;;;2.00;0.25;;;;;22.10;38.92;99842.22;5111535;27;46308;-75
2023/03/24 06:02:00;;;;;;;;;1.75;1.00;;;;;22.05;38.38;99839.13;5113757;27;45406;-75
2023/03/24 06:04:29;;;;;;;;;1.50;0.00;;;;;22.10;38.72;99855.56;5105423;27;45493;-76
2023/03/24 06:07:01;;;;;;;;;3.00;0.75;;;;;22.04;38.69;99846.25;5081703;27;45461;-75
2023/03/24 06:09:28;;;;;;;;;4.50;0.00;;;;;22.09;39.02;99857.34;5098547;27;46539;-75
2023/03/24 06:11:56;;;;;;;;;0.00;0.00;;;;;22.06;38.57;99859.44;5115036;27;45299;-75
2023/03/24 06:14:21;;;;;;;;;0.25;0.00;;;;;22.07;38.42;99877.97;5101676;27;45284;-76
2023/03/24 06:16:48;;;;;;;;;0.00;0.00;;;;;22.06;38.50;99878.97;5109564;27;47949;-75
2023/03/24 06:19:14;;;;;;;;;1.00;1.00;;;;;22.07;38.58;99888.63;5119139;27;45193;-75
2023/03/24 06:21:39;;;;;;;;;2.75;1.00;;;;;22.02;38.29;99882.88;5100877;27;45490;-75
2023/03/24 06:24:05;;;;;;;;;2.00;1.00;;;;;22.04;38.60;99901.38;5091456;27;45875;-75
2023/03/24 06:26:31;;;;;;;;;0.75;0.00;;;;;22.04;38.31;99902.22;5113548;27;45582;-75
2023/03/24 06:28:57;;;;;;;;;3.25;1.00;;;;;22.03;38.68;99910.34;5104122;27;69550;-75
2023/03/24 06:31:22;;;;;;;;;0.00;0.00;;;;;22.03;38.31;99913.00;5080602;27;45437;-76
2023/03/24 06:33:48;;;;;;;;;0.25;0.25;;;;;22.04;38.58;99917.38;5115766;27;52167;-76
2023/03/24 06:36:14;;;;;;;;;1.00;0.00;;;;;22.03;38.33;99919.19;5095910;27;45288;-76
2023/03/24 06:38:41;;;;;;;;;2.25;2.00;;;;;22.04;38.55;99928.84;5103266;27;46510;-76
2023/03/24 06:41:06;;;;;;;;;2.00;2.00;;;;;22.03;38.16;99927.19;5090694;27;45407;-76
2023/03/24 06:43:32;;;;;;;;;2.00;2.00;;;;;22.00;38.60;99924.78;5089017;27;45501;-76
2023/03/24 06:45:57;;;;;;;;;1.50;1.00;;;;;22.02;38.02;99924.66;5100296;27;68663;-76
2023/03/24 06:48:24;;;;;;;;;0.75;0.75;;;;;22.04;38.33;99941.34;5096135;27;45415;-75
2023/03/24 06:50:51;;;;;;;;;1.00;1.00;;;;;22.00;38.60;99938.94;5103530;27;45793;-76
2023/03/24 06:53:16;;;;;;;;;1.00;1.00;;;;;21.98;38.50;99938.25;5103396;27;45253;-76
2023/03/24 06:55:42;;;;;;;;;0.75;0.75;;;;;22.01;38.65;99939.81;5072212;27;65968;-77
2023/03/24 06:58:13;;;;;;;;;2.50;0.00;;;;;22.00;38.24;99938.09;5110650;27;74858;-76
2023/03/24 07:00:41;;;;;;;;;0.00;0.00;;;;;21.99;38.38;99945.28;5114790;27;45607;-76
2023/03/24 07:03:10;;;;;;;;;4.50;4.00;;;;;22.02;38.03;99951.31;5102443;27;45497;-75
2023/03/24 07:05:43;;;;;;;;;1.00;1.00;;;;;21.96;38.60;99942.88;5090848;27;45371;-75
2023/03/24 07:08:10;;;;;;;;;1.50;1.00;;;;;22.00;38.16;99954.09;5090352;27;47710;-75
2023/03/24 07:10:40;;;;;;;;;5.00;1.00;;;;;21.93;38.38;99939.63;5082016;27;45710;-74
2023/03/24 07:13:11;;;;;;;;;1.75;0.50;;;;;21.96;38.13;99940.19;5098637;27;45366;-75
2023/03/24 07:15:36;;;;;;;;;0.00;0.00;;;;;22.00;37.86;99962.91;5096676;27;45436;-79
2023/03/24 07:18:05;;;;;;;;;2.00;0.00;;;;;21.99;37.72;99952.41;5110681;27;45315;-85
2023/03/24 07:20:33;;;;;;;;;1.25;0.25;;;;;21.97;38.08;99957.03;5084245;27;45624;-80
2023/03/24 07:22:58;;;;;;;;;5.00;3.50;;;;;22.01;37.77;99969.13;5098755;27;45497;-79
2023/03/24 07:25:24;;;;;;;;;8.50;3.75;;;;;21.99;37.77;99961.25;5101052;27;73335;-81
2023/03/24 07:27:53;;;;;;;;;5.00;4.00;;;;;22.02;37.66;99969.94;5101077;27;47489;-83
2023/03/24 07:30:19;;;;;;;;;2.25;1.50;;;;;21.98;37.93;99967.53;5101862;27;45301;-81
2023/03/24 07:32:45;;;;;;;;;3.25;1.00;;;;;22.06;37.60;99979.34;5092733;27;45224;-78
2023/03/24 07:35:11;;;;;;;;;2.25;1.50;;;;;22.08;37.33;99977.41;5082003;27;61075;-77
2023/03/24 07:37:37;;;;;;;;;1.25;1.00;;;;;22.10;37.82;99983.47;5105256;27;45436;-77
2023/03/24 07:40:37;;;;;;;;;2.00;2.00;;;;;22.08;37.42;99975.59;5107381;27;45298;-80
2023/03/24 07:42:59;;;;;;;;;4.00;2.00;;;;;22.10;37.39;99973.63;5093350;27;45205;-79
2023/03/24 07:45:24;;;;;;;;;1.75;1.00;;;;;22.16;37.64;99988.22;5102685;27;45487;-82
2023/03/24 07:47:50;;;;;;;;;2.00;1.00;;;;;22.17;37.55;99989.94;5090501;27;45391;-81
2023/03/24 07:50:15;;;;;;;;;1.75;1.00;;;;;22.21;37.25;99991.34;5092416;27;67428;-78
2023/03/24 07:52:43;;;;;;;;;1.00;1.00;;;;;22.23;36.87;99993.88;5117353;27;48263;-77
2023/03/24 07:55:14;;;;;;;;;1.00;1.00;;;;;22.25;37.10;99994.59;5098652;27;45584;-76
2023/03/24 07:57:40;;;;;;;;;1.50;1.00;;;;;22.23;37.21;99988.56;5091564;27;45504;-76
2023/03/24 08:00:14;;;;;;;;;3.00;1.75;;;;;22.27;37.00;99995.31;5104228;27;45725;-76
2023/03/24 08:02:40;;;;;;;;;3.50;1.00;;;;;22.27;36.87;99995.31;5085285;27;45474;-76
2023/03/24 08:05:06;;;;;;;;;3.00;0.25;;;;;22.31;36.93;99996.72;5103185;27;45547;-75
2023/03/24 08:07:31;;;;;;;;;2.00;1.00;;;;;22.35;37.10;99995.50;5082219;27;47189;-75
2023/03/24 08:09:57;;;;;;;;;3.00;1.00;;;;;22.37;37.37;99994.38;5115283;27;68451;-75
2023/03/24 08:12:22;;;;;;;;;2.75;1.00;;;;;22.41;36.50;100005.59;5094961;27;45518;-75
2023/03/24 08:14:47;;;;;;;;;1.00;0.00;;;;;22.39;37.00;99999.56;5087556;27;62022;-75
2023/03/24 08:17:13;;;;;;;;;2.00;0.50;;;;;22.42;36.54;100007.31;5092477;27;72721;-75
2023/03/24 08:19:38;;;;;;;;;1.25;0.75;;;;;22.44;36.68;100005.34;5113199;27;73322;-75
2023/03/24 08:22:03;;;;;;;;;6.75;1.00;;;;;22.48;36.78;100005.91;5099488;27;56324;-73
2023/03/24 08:24:29;;;;;;;;;2.50;1.75;;;;;22.49;37.02;100004.94;5097829;27;55504;-72
2023/03/24 08:26:57;;;;;;;;;3.75;1.00;;;;;22.60;37.20;100017.31;5088773;27;58019;-70
2023/03/24 08:29:23;;;;;;;;;6.00;0.25;;;;;22.61;37.11;100008.31;5101247;27;45630;-73
2023/03/24 08:31:48;;;;;;;;;3.00;1.00;;;;;22.66;37.29;100011.41;5104649;27;46942;-79
2023/03/24 08:34:14;;;;;;;;;5.00;1.50;;;;;22.70;37.26;100018.16;5090609;27;45521;-76
2023/03/24 08:36:40;;;;;;;;;3.00;0.50;;;;;22.72;37.63;100025.06;5082518;27;47691;-75
2023/03/24 08:39:09;;;;;;;;;0.75;0.25;;;;;22.79;37.18;100020.03;5077258;27;45457;-74
2023/03/24 08:41:34;;;;;;;;;2.00;0.00;;;;;22.77;36.89;100030.00;5099362;27;45514;-74
2023/03/24 08:44:02;;;;;;;;;2.00;1.00;;;;;22.74;36.96;100022.25;5076026;27;45431;-74
2023/03/24 08:46:29;;;;;;;;;5.00;1.25;;;;;22.78;36.77;100031.66;5099727;27;47059;-75
2023/03/24 08:48:56;;;;;;;;;1.00;1.00;;;;;22.78;36.99;100028.16;5085211;27;45730;-78
2023/03/24 08:51:21;;;;;;;;;1.25;0.25;;;;;22.86;36.63;100042.50;5104141;27;45326;-75
2023/03/24 08:53:47;;;;;;;;;3.00;1.00;;;;;22.87;36.75;100052.16;5082713;27;45331;-77
2023/03/24 08:56:12;;;;;;;;;1.75;1.00;;;;;22.86;36.75;100049.63;5096091;27;76472;-82
2023/03/24 08:58:37;;;;;;;;;2.50;0.25;;;;;22.87;36.31;100049.50;5088942;27;55246;-77
2023/03/24 09:01:03;;;;;;;;;4.00;1.00;;;;;22.94;36.36;100058.63;5108008;27;46590;-86
2023/03/24 09:03:29;;;;;;;;;0.75;0.75;;;;;22.97;36.02;100065.53;5074175;27;45482;-75
2023/03/24 09:05:56;;;;;;;;;2.25;0.25;;;;;23.00;36.05;100065.28;5089614;27;45927;-84
2023/03/24 09:08:21;;;;;;;;;0.75;0.00;;;;;23.04;36.16;100073.84;5094792;27;45429;-76
2023/03/24 09:10:47;;;;;;;;;2.25;0.75;;;;;23.09;35.77;100067.16;5108820;27;45186;-75
2023/03/24 09:13:18;;;;;;;;;0.00;0.00;;;;;23.07;35.53;100065.56;5086420;27;45520;-82
2023/03/24 09:15:50;;;;;;;;;1.25;1.00;;;;;23.17;35.99;100074.44;5085837;27;45844;-82
2023/03/24 09:18:17;;;;;;;;;1.75;1.00;;;;;23.19;35.39;100072.47;5103764;27;45733;-78
2023/03/24 09:20:43;;;;;;;;;3.00;1.25;;;;;23.07;35.61;100053.09;5090006;27;45439;-81
2023/03/24 09:23:08;;;;;;;;;3.50;0.50;;;;;23.24;35.62;100074.75;5094829;27;45280;-79
2023/03/24 09:25:34;;;;;;;;;5.00;0.25;;;;;23.24;35.43;100064.06;5100732;27;46161;-78
2023/03/24 09:28:01;;;;;;;;;3.00;1.00;;;;;23.27;35.44;100069.97;5092484;27;45466;-83
2023/03/24 09:30:26;;;;;;;;;1.00;1.00;;;;;23.21;35.16;100057.16;5088925;27;45259;-77
2023/03/24 09:32:52;;;;;;;;;0.25;0.00;;;;;23.33;35.21;100079.22;5082445;27;45759;-84
2023/03/24 09:35:17;;;;;;;;;0.50;0.25;;;;;23.25;35.05;100069.25;5100332;27;63811;-86
2023/03/24 09:37:43;;;;;;;;;1.00;0.25;;;;;23.30;35.11;100079.50;5099675;27;65665;-86
2023/03/24 09:40:20;;;;;;;;;0.75;0.75;;;;;23.29;34.79;100076.00;5100661;27;45243;-81
2023/03/24 09:42:50;;;;;;;;;1.50;0.25;;;;;23.34;34.80;100099.63;5090768;27;45762;-83
2023/03/24 09:45:17;;;;;;;;;0.75;0.25;;;;;23.20;34.55;100066.16;5103417;27;45397;-73
2023/03/24 09:47:48;;;;;;;;;0.75;0.25;;;;;23.38;34.87;100098.34;5089621;27;45247;-76
2023/03/24 09:50:17;;;;;;;;;2.50;0.50;;;;;23.41;34.73;100092.75;5081057;27;45281;-76
2023/03/24 09:52:48;;;;;;;;;1.25;0.00;;;;;23.34;34.36;100072.91;5104485;27;45521;-73
2023/03/24 09:55:20;;;;;;;;;1.75;0.25;;;;;23.47;34.41;100085.97;5101602;27;45429;-74
2023/03/24 09:57:47;;;;;;;;;1.00;1.00;;;;;23.49;34.10;100090.19;5084517;27;45720;-79
2023/03/24 10:00:26;;;;;;;;;2.00;0.00;;;;;23.53;34.28;100092.59;5091442;27;45493;-87
2023/03/24 10:02:52;;;;;;;;;0.25;0.00;;;;;23.48;34.46;100067.16;5119748;27;45528;-80
2023/03/24 10:05:26;;;;;;;;;0.25;0.25;;;;;23.55;34.50;100072.78;5084154;27;47007;-75
2023/03/24 10:07:59;;;;;;;;;2.00;1.00;;;;;23.59;34.67;100079.50;5086946;27;45400;-73
2023/03/24 10:10:41;;;;;;;;;2.00;0.25;;;;;23.61;34.37;100088.22;5089638;27;45252;-76
2023/03/24 10:13:19;;;;;;;;;2.50;1.00;;;;;23.61;34.53;100090.91;5092668;27;45450;-75
2023/03/24 10:16:05;;;;;;;;;0.25;0.25;;;;;23.59;34.26;100090.19;5096999;27;48291;-79
2023/03/24 10:18:36;;;;;;;;;1.25;0.50;;;;;23.65;34.48;100097.63;5098924;27;45188;-82
2023/03/24 10:21:21;;;;;;;;;1.50;0.25;;;;;23.67;34.35;100089.47;5100374;27;45424;-83
2023/03/24 10:23:52;;;;;;;;;1.25;0.00;;;;;23.68;34.57;100094.69;5091966;27;45555;-75
2023/03/24 10:26:43;;;;;;;;;0.25;0.25;;;;;23.68;34.19;100099.19;5120635;27;45160;-76
2023/03/24 10:29:21;;;;;;;;;4.75;0.50;;;;;23.69;34.52;100101.72;5110858;27;45738;-78
2023/03/24 10:31:49;;;;;;;;;1.25;0.00;;;;;23.64;34.32;100082.59;5109486;27;45243;-78
2023/03/24 10:34:15;;;;;;;;;3.25;1.00;;;;;23.69;34.18;100087.50;5079013;27;45324;-75
2023/03/24 10:36:40;;;;;;;;;2.25;0.00;;;;;23.76;34.16;100095.81;5115671;27;45449;-74
2023/03/24 10:39:15;;;;;;;;;0.00;0.00;;;;;23.74;34.24;100093.28;5111757;27;65360;-83
2023/03/24 10:41:42;;;;;;;;;3.00;1.25;;;;;23.58;34.32;100069.81;5099476;27;45261;-81
2023/03/24 10:44:07;;;;;;;;;1.50;1.00;;;;;23.87;34.49;100103.72;5102982;27;45572;-75
2023/03/24 10:46:33;;;;;;;;;2.00;0.00;;;;;23.90;34.67;100095.38;5092847;27;45333;-77
2023/03/24 10:49:14;;;;;;;;;7.00;1.25;;;;;23.94;34.38;100099.47;5109997;27;45284;-78
2023/03/24 10:51:45;;;;;;;;;3.00;1.00;;;;;23.98;34.67;100098.19;5116475;27;45543;-80
2023/03/24 10:54:26;;;;;;;;;3.50;1.25;;;;;24.02;34.47;100101.41;5086942;27;45205;-80
2023/03/24 10:57:02;;;;;;;;;1.00;1.00;;;;;24.05;34.28;100096.63;5090914;27;45490;-78
2023/03/24 10:59:49;;;;;;;;;4.00;1.00;;;;;24.10;34.40;100098.03;5114011;27;45916;-75
2023/03/24 11:02:18;;;;;;;;;1.25;0.00;;;;;24.10;34.29;100095.34;5102001;27;45378;-75
2023/03/24 11:04:52;;;;;;;;;3.00;1.00;;;;;24.16;34.02;100102.81;5080328;27;45973;-73
2023/03/24 11:07:19;;;;;;;;;4.00;1.00;;;;;24.20;34.21;100107.69;5083687;27;46701;-77
2023/03/24 11:10:09;;;;;;;;;0.25;0.25;;;;;24.23;34.16;100103.91;5089810;27;45379;-75
2023/03/24 11:12:37;;;;;;;;;1.50;1.25;;;;;24.21;34.29;100096.03;5105067;27;45187;-78
2023/03/24 11:15:03;;;;;;;;;1.00;0.00;;;;;24.30;34.26;100106.84;5093740;27;45618;-73
2023/03/24 11:17:28;;;;;;;;;0.75;0.25;;;;;24.29;33.92;100089.94;5104486;27;46861;-77
2023/03/24 11:19:55;;;;;;;;;1.00;0.75;;;;;24.33;34.13;100087.81;5077416;27;45490;-77
2023/03/24 11:22:21;;;;;;;;;0.25;0.25;;;;;24.31;34.15;100089.78;5080945;27;45490;-83
2023/03/24 11:24:51;;;;;;;;;1.25;0.00;;;;;24.34;33.97;100094.84;5060729;28;45635;-75
2023/03/24 11:27:17;;;;;;;;;1.25;0.00;;;;;24.31;33.97;100079.09;5068734;28;46498;-79
2023/03/24 11:29:55;;;;;;;;;1.00;0.25;;;;;24.37;33.75;100094.56;5046985;28;45616;-84
2023/03/24 11:32:26;;;;;;;;;1.75;0.25;;;;;24.30;34.00;100074.75;5053528;28;45513;-84
2023/03/24 11:35:05;;;;;;;;;0.00;0.00;;;;;24.33;33.79;100075.31;5061975;28;45522;-80
2023/03/24 11:37:34;;;;;;;;;5.00;0.25;;;;;24.33;34.02;100077.97;5076627;28;45814;-81
2023/03/24 11:40:11;;;;;;;;;1.50;1.00;;;;;24.36;33.92;100104.41;5066681;28;45663;-80
2023/03/24 11:42:41;;;;;;;;;0.75;0.25;;;;;24.31;33.60;100085.31;5065868;28;46531;-80
2023/03/24 11:45:22;;;;;;;;;0.75;0.25;;;;;24.34;34.26;100100.22;5079324;27;45453;-83